Time;durP1;ratioP1;P1;durP2;ratioP2;P2;SDS_P1;SDS_P2;PMS_P1;PMS_P2;Temp;Humidity;BMP_temperature;BMP_pressure;BME280_temperature;BME280_humidity;BME280_pressure;Samples;Min_cycle;Max_cycle;Signal;HPM_P1;HPM_P2
2021/01/21 00:00:42;;;;;;;73.90;41.17;;;4.40;91.70;;;;;;4954688;29;20035;-72
2021/01/21 00:03:08;;;;;;;76.35;42.67;;;4.40;91.90;;;;;;4956121;29;20027;-72
2021/01/21 00:05:33;;;;;;;86.03;49.55;;;4.30;92.10;;;;;;4954581;29;20101;-71
2021/01/21 00:07:59;;;;;;;88.95;50.15;;;4.30;92.00;;;;;;4954843;29;20038;-72
2021/01/21 00:10:25;;;;;;;112.28;58.78;;;4.20;92.30;;;;;;4956257;29;20035;-72
2021/01/21 00:12:51;;;;;;;116.53;62.92;;;4.20;92.20;;;;;;4955732;29;20023;-73
2021/01/21 00:15:17;;;;;;;102.20;52.35;;;4.10;92.40;;;;;;4954424;29;20027;-72
2021/01/21 00:17:43;;;;;;;91.95;51.25;;;4.10;92.20;;;;;;4954744;29;20082;-71
2021/01/21 00:20:11;;;;;;;91.97;52.00;;;4.10;92.70;;;;;;4956197;29;20519;-72
2021/01/21 00:22:37;;;;;;;107.35;56.78;;;4.10;92.60;;;;;;4955877;28;20055;-72
2021/01/21 00:25:04;;;;;;;100.70;52.75;;;4.00;92.40;;;;;;4954653;29;20038;-72
2021/01/21 00:27:30;;;;;;;87.18;47.05;;;4.00;92.60;;;;;;4955773;29;20087;-72
2021/01/21 00:29:56;;;;;;;93.22;49.10;;;4.10;92.90;;;;;;4955752;29;20063;-72
2021/01/21 00:32:21;;;;;;;86.63;45.90;;;4.00;92.30;;;;;;4954548;29;20023;-73
2021/01/21 00:34:47;;;;;;;80.93;44.58;;;4.00;92.90;;;;;;4955483;29;20023;-72
2021/01/21 00:37:13;;;;;;;76.47;40.95;;;3.90;92.50;;;;;;4954742;29;20066;-72
2021/01/21 00:39:39;;;;;;;67.35;38.30;;;3.90;92.60;;;;;;4954471;29;20059;-71
2021/01/21 00:42:05;;;;;;;70.90;38.70;;;3.90;92.70;;;;;;4955380;29;20503;-73
2021/01/21 00:44:31;;;;;;;71.53;37.97;;;3.90;92.80;;;;;;4955682;29;20041;-72
2021/01/21 00:46:57;;;;;;;62.13;34.80;;;4.00;93.20;;;;;;4955312;29;20099;-71
2021/01/21 00:49:22;;;;;;;59.63;33.17;;;4.00;93.00;;;;;;4953983;29;20035;-71
2021/01/21 00:51:49;;;;;;;75.07;40.58;;;4.00;93.20;;;;;;4955356;29;20035;-72
2021/01/21 00:54:14;;;;;;;114.53;53.60;;;4.00;93.10;;;;;;4954307;29;20034;-73
2021/01/21 00:56:41;;;;;;;58.10;30.75;;;4.10;93.10;;;;;;4953731;29;20114;-73
2021/01/21 00:59:07;;;;;;;47.92;26.98;;;4.00;93.20;;;;;;4954292;29;20038;-72
2021/01/21 01:01:33;;;;;;;49.90;24.52;;;4.00;93.10;;;;;;4955483;29;20494;-72
2021/01/21 01:03:58;;;;;;;49.58;25.95;;;4.00;93.00;;;;;;4953965;29;20028;-73
2021/01/21 01:06:24;;;;;;;55.35;29.92;;;4.00;93.20;;;;;;4954774;29;20023;-72
2021/01/21 01:08:50;;;;;;;70.88;37.47;;;4.10;93.00;;;;;;4957804;28;20479;-71
2021/01/21 01:11:17;;;;;;;75.68;38.88;;;4.10;93.00;;;;;;4958957;29;20384;-72
2021/01/21 01:13:42;;;;;;;47.10;26.90;;;4.10;92.90;;;;;;4958999;29;20495;-72
2021/01/21 01:16:10;;;;;;;43.17;24.90;;;4.10;93.00;;;;;;4958017;29;20035;-71
2021/01/21 01:18:36;;;;;;;41.90;23.90;;;4.10;93.10;;;;;;4958621;29;20031;-71
2021/01/21 01:21:02;;;;;;;43.88;24.38;;;4.10;93.00;;;;;;4958678;28;20064;-72
2021/01/21 01:23:30;;;;;;;59.63;30.67;;;4.10;92.90;;;;;;4958809;29;20028;-73
2021/01/21 01:25:56;;;;;;;128.55;55.88;;;4.10;92.70;;;;;;4958344;29;20034;-72
2021/01/21 01:28:22;;;;;;;117.80;56.15;;;4.10;92.90;;;;;;4957676;29;20118;-71
2021/01/21 01:30:48;;;;;;;106.25;52.70;;;4.10;93.00;;;;;;4957602;29;20131;-72
2021/01/21 01:33:14;;;;;;;61.45;34.28;;;4.10;93.00;;;;;;4956708;29;20030;-71
2021/01/21 01:35:39;;;;;;;52.78;30.05;;;4.10;93.00;;;;;;4957582;29;20731;-72
2021/01/21 01:38:05;;;;;;;53.30;30.77;;;4.10;92.90;;;;;;4957569;29;20031;-77
2021/01/21 01:40:31;;;;;;;40.90;25.27;;;4.10;93.00;;;;;;4957663;29;20031;-72
2021/01/21 01:42:57;;;;;;;43.72;25.73;;;4.10;92.80;;;;;;4958725;29;20082;-71
2021/01/21 01:45:22;;;;;;;34.05;20.83;;;4.00;92.90;;;;;;4957134;29;20058;-72
2021/01/21 01:47:49;;;;;;;29.55;17.30;;;4.00;93.20;;;;;;4958327;29;20027;-71
2021/01/21 01:50:15;;;;;;;35.38;18.85;;;4.10;93.30;;;;;;4958258;29;20035;-72
2021/01/21 01:52:42;;;;;;;35.53;19.08;;;4.10;93.20;;;;;;4958593;29;20482;-72
2021/01/21 01:55:17;;;;;;;37.30;20.73;;;4.10;93.20;;;;;;4958020;29;20031;-73
2021/01/21 01:57:48;;;;;;;42.88;23.20;;;4.10;93.20;;;;;;4957478;29;20082;-72
2021/01/21 02:00:14;;;;;;;42.10;22.85;;;4.10;93.20;;;;;;4940959;29;20101;-72
2021/01/21 02:02:40;;;;;;;44.47;24.23;;;4.10;93.20;;;;;;4958356;29;20042;-72
2021/01/21 02:05:07;;;;;;;46.15;25.92;;;4.10;93.20;;;;;;4957603;29;20081;-72
2021/01/21 02:07:32;;;;;;;48.78;26.02;;;4.10;93.20;;;;;;4956786;29;20031;-72
2021/01/21 02:10:01;;;;;;;44.95;26.02;;;4.10;93.30;;;;;;4941405;29;20490;-72
2021/01/21 02:12:48;;;;;;;67.10;37.47;;;4.10;93.20;;;;;;4956657;29;20066;-73
2021/01/21 02:15:40;;;;;;;56.17;31.92;;;4.10;93.20;;;;;;4956960;29;20085;-71
2021/01/21 02:18:48;;;;;;;91.47;51.70;;;4.10;93.10;;;;;;4958120;29;20027;-72
2021/01/21 02:21:50;;;;;;;68.68;41.05;;;4.10;93.10;;;;;;4955589;28;20428;-71
2021/01/21 02:24:40;;;;;;;45.20;26.13;;;4.10;93.10;;;;;;4956756;29;20038;-72
2021/01/21 02:27:08;;;;;;;52.15;32.60;;;4.10;92.90;;;;;;4957571;29;20027;-72
2021/01/21 02:29:36;;;;;;;47.05;28.80;;;4.10;93.00;;;;;;4957746;29;20093;-72
2021/01/21 02:32:11;;;;;;;35.95;22.10;;;4.00;93.10;;;;;;4957777;29;20042;-73
2021/01/21 02:34:49;;;;;;;27.88;17.35;;;4.10;93.10;;;;;;4957527;29;20396;-71
2021/01/21 02:37:17;;;;;;;30.27;18.40;;;4.10;93.10;;;;;;4956467;29;20476;-72
2021/01/21 02:39:53;;;;;;;46.30;29.67;;;4.10;93.00;;;;;;4956409;29;20114;-72
2021/01/21 02:42:18;;;;;;;40.47;25.63;;;4.10;93.00;;;;;;4956126;29;20494;-72
2021/01/21 02:44:44;;;;;;;33.28;22.42;;;4.10;92.70;;;;;;4957336;29;20031;-71
2021/01/21 02:47:11;;;;;;;35.28;21.98;;;4.10;92.70;;;;;;4957517;29;20031;-72
2021/01/21 02:49:37;;;;;;;34.13;21.42;;;4.10;92.70;;;;;;4956874;29;20030;-72
2021/01/21 02:52:18;;;;;;;40.17;23.48;;;4.00;93.00;;;;;;4957448;29;20053;-73
2021/01/21 02:54:52;;;;;;;35.90;21.67;;;4.00;93.10;;;;;;4956565;29;20460;-71
2021/01/21 02:57:59;;;;;;;31.08;19.38;;;3.90;93.00;;;;;;4956471;29;20106;-72
2021/01/21 03:00:26;;;;;;;31.38;19.02;;;3.80;93.30;;;;;;4920915;29;20050;-72
2021/01/21 03:02:57;;;;;;;31.13;18.40;;;3.70;93.50;;;;;;4955669;29;20034;-72
2021/01/21 03:05:25;;;;;;;29.67;18.13;;;3.80;93.50;;;;;;4956024;29;20051;-72
2021/01/21 03:07:52;;;;;;;33.60;18.50;;;3.80;93.10;;;;;;4956710;29;20415;-71
2021/01/21 03:10:20;;;;;;;33.20;19.05;;;3.80;93.00;;;;;;4955236;29;20155;-72
2021/01/21 03:12:58;;;;;;;38.67;21.33;;;3.80;93.20;;;;;;4956808;29;20558;-73
2021/01/21 03:15:25;;;;;;;43.58;23.38;;;3.70;93.60;;;;;;4956119;29;20038;-73
2021/01/21 03:17:51;;;;;;;51.40;29.10;;;3.70;93.60;;;;;;4955705;29;20038;-73
2021/01/21 03:20:17;;;;;;;50.63;27.63;;;3.70;93.60;;;;;;4955670;29;20127;-72
2021/01/21 03:22:44;;;;;;;61.88;36.53;;;3.70;93.50;;;;;;4957037;29;20373;-73
2021/01/21 03:25:10;;;;;;;64.40;39.33;;;3.70;94.00;;;;;;4955634;29;20105;-72
2021/01/21 03:27:36;;;;;;;86.28;52.28;;;3.70;94.30;;;;;;4956861;29;20063;-72
2021/01/21 03:30:07;;;;;;;45.00;26.20;;;3.70;94.50;;;;;;4955633;29;20043;-72
2021/01/21 03:32:33;;;;;;;45.40;25.88;;;3.70;94.50;;;;;;4954446;28;20028;-71
2021/01/21 03:34:59;;;;;;;48.10;27.73;;;3.70;94.30;;;;;;4956697;29;20094;-71
2021/01/21 03:37:24;;;;;;;49.78;28.88;;;3.70;94.30;;;;;;4956333;29;20035;-72
2021/01/21 03:39:50;;;;;;;49.08;27.63;;;3.70;94.10;;;;;;4955320;29;20117;-72
2021/01/21 03:42:16;;;;;;;49.72;26.30;;;3.70;94.10;;;;;;4956706;29;20044;-72
2021/01/21 03:44:42;;;;;;;50.95;28.45;;;3.60;94.10;;;;;;4954944;29;20532;-72
2021/01/21 03:47:08;;;;;;;49.97;29.90;;;3.70;94.20;;;;;;4955133;29;20034;-72
2021/01/21 03:49:33;;;;;;;68.95;39.35;;;3.60;93.80;;;;;;4956554;29;20046;-72
2021/01/21 03:52:00;;;;;;;69.95;38.58;;;3.60;94.00;;;;;;4954798;29;20137;-72
2021/01/21 03:54:26;;;;;;;57.95;33.65;;;3.60;94.00;;;;;;4955029;29;20035;-72
2021/01/21 03:56:52;;;;;;;55.88;32.50;;;3.60;94.10;;;;;;4956223;29;20038;-72
2021/01/21 03:59:17;;;;;;;46.25;26.55;;;3.60;94.30;;;;;;4954663;29;20427;-72
2021/01/21 04:01:43;;;;;;;47.80;26.02;;;3.60;94.40;;;;;;4954930;29;20031;-72
2021/01/21 04:04:09;;;;;;;90.35;37.63;;;3.60;94.50;;;;;;4954834;29;20490;-72
2021/01/21 04:06:34;;;;;;;275.80;86.72;;;3.60;94.30;;;;;;4955742;29;20159;-71
2021/01/21 04:09:00;;;;;;;295.33;91.85;;;3.60;94.40;;;;;;4954823;29;20476;-72
2021/01/21 04:11:26;;;;;;;269.92;88.03;;;3.60;94.40;;;;;;4955499;29;20035;-73
2021/01/21 04:13:52;;;;;;;152.30;69.53;;;3.70;94.30;;;;;;4955990;29;20062;-72
2021/01/21 04:16:17;;;;;;;91.63;47.55;;;3.70;94.80;;;;;;4954740;29;20027;-72
2021/01/21 04:18:43;;;;;;;36.42;21.58;;;3.70;94.30;;;;;;4954390;29;20468;-73
2021/01/21 04:21:09;;;;;;;82.15;47.03;;;3.70;94.20;;;;;;4955829;28;20055;-72
2021/01/21 04:23:35;;;;;;;45.78;25.90;;;3.80;94.10;;;;;;4954826;29;20031;-73
2021/01/21 04:26:02;;;;;;;38.58;22.50;;;3.80;94.10;;;;;;4955519;29;20034;-74
2021/01/21 04:28:28;;;;;;;37.85;23.95;;;3.80;94.00;;;;;;4955540;29;20027;-72
2021/01/21 04:30:53;;;;;;;56.58;33.55;;;3.80;94.00;;;;;;4954457;29;20090;-73
2021/01/21 04:33:19;;;;;;;51.70;29.83;;;3.80;93.90;;;;;;4954230;29;20106;-72
2021/01/21 04:35:45;;;;;;;55.15;29.83;;;3.80;93.30;;;;;;4954494;29;20024;-73
2021/01/21 04:38:10;;;;;;;56.33;29.88;;;3.80;93.40;;;;;;4955990;29;20452;-74
2021/01/21 04:40:36;;;;;;;71.45;35.17;;;3.80;93.60;;;;;;4954165;29;20464;-72
2021/01/21 04:43:02;;;;;;;91.97;46.45;;;3.70;93.60;;;;;;4954041;29;20031;-74
2021/01/21 04:45:28;;;;;;;126.88;63.85;;;3.70;93.60;;;;;;4954430;29;20050;-73
2021/01/21 04:47:54;;;;;;;45.00;25.83;;;3.70;94.00;;;;;;4955339;29;20090;-73
2021/01/21 04:50:20;;;;;;;39.78;23.38;;;3.80;94.50;;;;;;4954343;29;20395;-72
2021/01/21 04:52:51;;;;;;;41.58;22.90;;;3.90;94.40;;;;;;4954315;29;20040;-72
2021/01/21 04:55:25;;;;;;;39.38;22.63;;;3.80;94.30;;;;;;4954385;29;20039;-72
2021/01/21 04:58:15;;;;;;;38.90;23.53;;;3.80;94.40;;;;;;4954416;29;20027;-73
2021/01/21 05:00:42;;;;;;;39.35;22.90;;;3.90;94.40;;;;;;4955529;29;20279;-73
2021/01/21 05:03:10;;;;;;;34.88;21.02;;;3.90;94.40;;;;;;4954193;29;20027;-72
2021/01/21 05:05:36;;;;;;;29.33;15.68;;;3.90;94.40;;;;;;4955228;29;20023;-73
2021/01/21 05:08:03;;;;;;;22.27;13.57;;;3.90;94.30;;;;;;4954953;29;20058;-72
2021/01/21 05:10:29;;;;;;;25.60;15.50;;;4.00;94.30;;;;;;4954113;29;20067;-73
2021/01/21 05:12:55;;;;;;;19.27;11.48;;;4.00;94.30;;;;;;4954276;29;20038;-73
2021/01/21 05:15:20;;;;;;;19.13;11.75;;;4.00;94.20;;;;;;4953971;29;20467;-73
2021/01/21 05:17:46;;;;;;;27.80;14.02;;;4.00;94.20;;;;;;4954189;29;20360;-73
2021/01/21 05:20:12;;;;;;;22.17;12.50;;;4.10;94.10;;;;;;4954517;29;20028;-72
2021/01/21 05:22:39;;;;;;;37.70;20.35;;;4.10;94.10;;;;;;4953630;29;20051;-73
2021/01/21 05:25:06;;;;;;;89.05;47.85;;;4.10;94.10;;;;;;4954146;29;20023;-73
2021/01/21 05:27:32;;;;;;;117.75;67.53;;;4.10;94.00;;;;;;4953941;29;20058;-73
2021/01/21 05:30:02;;;;;;;84.10;49.78;;;4.10;94.00;;;;;;4953716;29;20431;-73
2021/01/21 05:32:28;;;;;;;98.60;54.63;;;4.10;94.00;;;;;;4955768;29;20024;-73
2021/01/21 05:34:54;;;;;;;30.23;16.58;;;4.10;93.70;;;;;;4954937;29;20031;-73
2021/01/21 05:37:20;;;;;;;27.65;16.55;;;4.10;94.00;;;;;;4953813;29;20612;-72
2021/01/21 05:39:46;;;;;;;29.40;18.65;;;4.10;93.80;;;;;;4953835;29;20460;-74
2021/01/21 05:42:15;;;;;;;27.55;16.88;;;4.20;93.80;;;;;;4953622;29;20043;-72
2021/01/21 05:44:41;;;;;;;44.53;32.75;;;4.20;93.90;;;;;;4953891;29;20118;-74
2021/01/21 05:47:09;;;;;;;27.25;15.95;;;4.20;93.80;;;;;;4954440;29;20472;-73
2021/01/21 05:49:36;;;;;;;26.27;20.58;;;4.20;93.90;;;;;;4953508;29;20159;-73
2021/01/21 05:52:03;;;;;;;20.83;12.50;;;4.20;93.90;;;;;;4953816;29;20062;-72
2021/01/21 05:54:30;;;;;;;21.30;14.25;;;4.20;93.90;;;;;;4954327;28;20448;-73
2021/01/21 05:56:58;;;;;;;23.58;13.15;;;4.20;94.00;;;;;;4957062;29;20034;-72
2021/01/21 05:59:25;;;;;;;22.70;13.90;;;4.20;94.00;;;;;;4958156;29;20038;-73
2021/01/21 06:01:56;;;;;;;20.75;13.13;;;4.10;94.00;;;;;;4956812;29;20031;-73
2021/01/21 06:04:28;;;;;;;24.30;14.50;;;4.10;94.00;;;;;;4956709;29;20039;-72
2021/01/21 06:06:54;;;;;;;19.65;11.95;;;4.10;93.90;;;;;;4956963;29;20034;-73
2021/01/21 06:09:28;;;;;;;27.92;15.68;;;4.10;93.90;;;;;;4940870;29;20043;-74
2021/01/21 06:11:59;;;;;;;49.60;24.90;;;4.10;94.00;;;;;;4957936;29;20420;-72
2021/01/21 06:14:25;;;;;;;94.57;40.70;;;4.10;94.00;;;;;;4940900;29;20491;-73
2021/01/21 06:16:51;;;;;;;108.45;27.17;;;4.10;94.00;;;;;;4957357;29;20031;-73
2021/01/21 06:19:17;;;;;;;36.97;20.67;;;4.10;94.00;;;;;;4957700;29;20059;-73
2021/01/21 06:22:00;;;;;;;63.40;29.33;;;4.20;94.10;;;;;;4956550;28;20083;-73
2021/01/21 06:24:30;;;;;;;40.80;24.08;;;4.20;93.90;;;;;;4956505;29;20082;-73
2021/01/21 06:27:02;;;;;;;39.50;22.08;;;4.20;94.10;;;;;;4956639;29;20027;-73
2021/01/21 06:29:29;;;;;;;31.05;18.35;;;4.10;94.00;;;;;;4957828;29;20361;-73
2021/01/21 06:32:00;;;;;;;31.33;17.50;;;4.10;94.00;;;;;;4956253;29;20499;-72
2021/01/21 06:34:32;;;;;;;27.15;16.40;;;4.20;93.90;;;;;;4958170;29;20372;-73
2021/01/21 06:37:08;;;;;;;28.48;17.13;;;4.20;94.00;;;;;;4955341;29;20038;-73
2021/01/21 06:39:53;;;;;;;27.70;16.02;;;4.20;94.00;;;;;;4956151;29;20028;-73
2021/01/21 06:42:27;;;;;;;68.72;31.77;;;4.20;94.00;;;;;;4957069;29;20027;-72
2021/01/21 06:44:54;;;;;;;31.55;17.85;;;4.20;93.90;;;;;;4956971;29;20040;-73
2021/01/21 06:47:21;;;;;;;35.40;19.52;;;4.20;93.90;;;;;;4955844;28;20084;-72
2021/01/21 06:49:47;;;;;;;37.10;21.25;;;4.20;93.90;;;;;;4957526;29;20035;-73
2021/01/21 06:52:13;;;;;;;105.40;52.78;;;4.20;94.10;;;;;;4957773;29;20098;-73
2021/01/21 06:54:40;;;;;;;37.88;21.55;;;4.20;94.00;;;;;;4955833;29;20031;-75
2021/01/21 06:57:34;;;;;;;41.55;23.30;;;4.20;93.90;;;;;;4957185;29;20090;-72
2021/01/21 07:00:00;;;;;;;54.05;28.77;;;4.20;93.90;;;;;;4956059;29;20118;-73
2021/01/21 07:02:46;;;;;;;46.65;27.73;;;4.20;94.00;;;;;;4957064;29;20023;-73
2021/01/21 07:05:20;;;;;;;51.50;28.27;;;4.20;93.90;;;;;;4956248;29;20027;-74
2021/01/21 07:08:01;;;;;;;85.65;33.88;;;4.20;94.20;;;;;;4955935;29;20034;-72
2021/01/21 07:10:29;;;;;;;79.20;40.75;;;4.10;94.30;;;;;;4956403;29;20046;-74
2021/01/21 07:12:57;;;;;;;72.55;40.72;;;4.10;94.40;;;;;;4955833;29;20027;-72
2021/01/21 07:15:34;;;;;;;61.30;35.50;;;4.10;94.50;;;;;;4955498;29;20027;-74
2021/01/21 07:18:02;;;;;;;65.82;39.08;;;4.20;94.40;;;;;;4955835;29;20468;-73
2021/01/21 07:20:32;;;;;;;72.95;44.88;;;4.30;94.20;;;;;;4956614;29;20035;-73
2021/01/21 07:23:07;;;;;;;63.25;40.67;;;4.30;94.30;;;;;;4955623;28;20057;-74
2021/01/21 07:25:35;;;;;;;52.20;33.53;;;4.40;94.20;;;;;;4955639;29;20034;-73
2021/01/21 07:28:08;;;;;;;102.28;49.08;;;4.40;94.00;;;;;;4955413;29;20035;-73
2021/01/21 07:30:38;;;;;;;64.30;34.45;;;4.50;93.90;;;;;;4940656;29;20039;-73
2021/01/21 07:33:23;;;;;;;49.60;29.88;;;4.50;93.90;;;;;;4934400;29;20123;-72
2021/01/21 07:35:52;;;;;;;92.75;52.72;;;4.60;93.60;;;;;;4919005;29;20039;-72
2021/01/21 07:38:40;;;;;;;75.40;41.63;;;4.70;93.60;;;;;;4919804;29;20114;-75
2021/01/21 07:41:05;;;;;;;60.75;35.55;;;4.70;93.50;;;;;;4935911;29;20086;-73
2021/01/21 07:43:53;;;;;;;79.60;48.10;;;4.70;93.50;;;;;;4936558;29;20102;-73
2021/01/21 07:46:25;;;;;;;53.10;34.47;;;4.80;93.40;;;;;;4936221;29;20082;-71
2021/01/21 07:49:26;;;;;;;71.22;42.45;;;4.80;93.20;;;;;;4936014;29;20066;-74
2021/01/21 07:52:18;;;;;;;217.70;107.63;;;4.90;93.30;;;;;;4934274;29;20028;-73
2021/01/21 07:54:48;;;;;;;81.80;46.25;;;4.90;93.20;;;;;;4931544;29;20039;-71
2021/01/21 07:57:23;;;;;;;55.42;34.08;;;5.00;93.10;;;;;;4936572;29;20027;-73
2021/01/21 08:00:09;;;;;;;82.45;47.45;;;5.00;93.00;;;;;;4920015;29;20078;-75
2021/01/21 08:02:51;;;;;;;54.40;33.72;;;5.10;93.10;;;;;;4919742;29;20036;-73
2021/01/21 08:05:23;;;;;;;57.15;35.42;;;5.20;92.80;;;;;;4920087;29;20126;-74
2021/01/21 08:07:55;;;;;;;71.55;41.97;;;5.30;92.80;;;;;;4922247;29;20499;-75
2021/01/21 08:10:23;;;;;;;60.95;33.35;;;5.30;92.90;;;;;;4924251;29;20122;-74
2021/01/21 08:12:57;;;;;;;48.42;27.75;;;5.40;92.60;;;;;;4945984;29;20036;-75
2021/01/21 08:15:25;;;;;;;53.72;32.47;;;5.50;92.50;;;;;;4935283;29;20028;-73
2021/01/21 08:17:52;;;;;;;63.00;34.95;;;5.60;92.40;;;;;;4935917;29;20031;-73
2021/01/21 08:20:23;;;;;;;54.75;31.88;;;5.70;92.20;;;;;;4937413;29;20035;-73
2021/01/21 08:22:52;;;;;;;47.97;28.45;;;5.90;92.00;;;;;;4937179;29;20055;-72
2021/01/21 08:25:18;;;;;;;63.35;39.75;;;6.10;91.60;;;;;;4936483;29;20387;-73
2021/01/21 08:27:46;;;;;;;55.00;36.30;;;6.30;91.10;;;;;;4919432;29;20568;-73
2021/01/21 08:30:21;;;;;;;60.00;36.08;;;6.50;91.50;;;;;;4938481;29;20047;-74
2021/01/21 08:32:55;;;;;;;80.20;47.20;;;6.70;91.00;;;;;;4941406;29;20024;-72
2021/01/21 08:35:24;;;;;;;91.90;48.67;;;6.90;91.00;;;;;;4939824;29;20034;-74
2021/01/21 08:37:52;;;;;;;78.28;48.28;;;7.10;90.60;;;;;;4917945;29;20042;-75
2021/01/21 08:40:19;;;;;;;75.03;45.80;;;7.30;90.60;;;;;;4919038;29;20036;-73
2021/01/21 08:42:47;;;;;;;81.55;48.40;;;7.40;89.40;;;;;;4936782;29;20028;-73
2021/01/21 08:45:13;;;;;;;79.15;49.50;;;7.50;90.00;;;;;;4919336;29;20031;-74
2021/01/21 08:47:47;;;;;;;81.10;49.30;;;7.70;89.60;;;;;;4919500;29;20543;-73
2021/01/21 08:50:14;;;;;;;82.72;53.20;;;7.90;90.00;;;;;;4919427;29;20072;-71
2021/01/21 08:53:07;;;;;;;75.10;47.00;;;8.60;89.70;;;;;;4919128;29;20036;-73
2021/01/21 08:55:39;;;;;;;90.05;57.15;;;8.70;87.90;;;;;;4919347;29;20034;-73
2021/01/21 08:58:05;;;;;;;101.95;59.00;;;8.60;85.10;;;;;;4935096;29;20036;-72
2021/01/21 09:00:33;;;;;;;70.20;42.22;;;8.80;84.40;;;;;;4936066;29;20050;-74
2021/01/21 09:02:59;;;;;;;72.53;46.13;;;8.80;84.30;;;;;;4937945;29;20032;-73
2021/01/21 09:05:26;;;;;;;57.42;36.38;;;9.10;87.10;;;;;;4942830;29;20024;-72
2021/01/21 09:08:00;;;;;;;58.95;35.65;;;9.20;82.10;;;;;;4936369;29;20031;-74
2021/01/21 09:10:26;;;;;;;54.50;32.35;;;9.20;81.60;;;;;;4919252;29;20035;-72
2021/01/21 09:13:01;;;;;;;51.17;31.48;;;9.20;81.90;;;;;;4936334;29;20035;-72
2021/01/21 09:15:27;;;;;;;58.17;33.53;;;9.20;82.10;;;;;;4936329;29;20043;-72
2021/01/21 09:18:06;;;;;;;50.85;32.40;;;9.30;84.00;;;;;;4936264;29;20032;-72
2021/01/21 09:20:32;;;;;;;47.65;30.75;;;9.80;83.00;;;;;;4936299;29;20388;-73
2021/01/21 09:23:15;;;;;;;54.95;31.05;;;10.30;82.10;;;;;;4918986;29;20063;-72
2021/01/21 09:25:40;;;;;;;48.58;28.95;;;10.90;76.40;;;;;;4936139;29;20547;-72
2021/01/21 09:28:11;;;;;;;60.50;35.60;;;10.70;75.10;;;;;;4935894;29;20027;-73
2021/01/21 09:30:37;;;;;;;58.17;33.15;;;11.00;74.80;;;;;;4922894;29;20047;-73
2021/01/21 09:33:03;;;;;;;49.08;29.38;;;11.30;77.10;;;;;;4939702;29;20491;-73
2021/01/21 09:35:28;;;;;;;45.15;27.48;;;11.10;73.20;;;;;;4938165;29;20035;-72
2021/01/21 09:37:57;;;;;;;45.00;27.02;;;11.50;73.30;;;;;;4938324;29;20035;-72
2021/01/21 09:40:27;;;;;;;49.65;29.98;;;11.50;72.80;;;;;;4939242;29;20082;-74
2021/01/21 09:42:56;;;;;;;55.65;34.28;;;11.50;72.80;;;;;;4939869;29;20055;-74
2021/01/21 09:45:22;;;;;;;58.72;34.65;;;11.60;73.60;;;;;;4922411;29;20536;-72
2021/01/21 09:47:51;;;;;;;59.78;35.25;;;11.90;79.20;;;;;;4939404;29;20035;-72
2021/01/21 09:50:18;;;;;;;53.25;32.45;;;12.50;74.60;;;;;;4922461;29;20042;-72
2021/01/21 09:52:44;;;;;;;46.95;29.25;;;12.60;73.10;;;;;;4939968;29;20028;-72
2021/01/21 09:55:11;;;;;;;55.67;33.97;;;12.70;71.00;;;;;;4921960;29;20491;-73
2021/01/21 09:57:39;;;;;;;51.85;31.30;;;13.00;70.50;;;;;;4921988;29;20027;-73
2021/01/21 10:00:06;;;;;;;38.58;26.48;;;13.40;70.70;;;;;;4921110;29;20087;-73
2021/01/21 10:02:31;;;;;;;41.03;26.80;;;13.40;65.20;;;;;;4937839;29;20067;-73
2021/01/21 10:04:57;;;;;;;38.83;23.10;;;13.60;69.40;;;;;;4921811;29;20028;-73
2021/01/21 10:07:23;;;;;;;39.75;24.88;;;13.50;67.80;;;;;;4922024;29;20024;-72
2021/01/21 10:09:49;;;;;;;45.90;27.73;;;13.70;63.50;;;;;;4937533;29;20063;-73
2021/01/21 10:12:14;;;;;;;45.95;28.15;;;13.60;64.10;;;;;;4939102;29;20055;-73
2021/01/21 10:14:40;;;;;;;43.17;27.90;;;13.90;71.90;;;;;;4921692;29;20120;-73
2021/01/21 10:17:07;;;;;;;40.50;25.67;;;14.40;66.30;;;;;;4938679;29;20087;-73
2021/01/21 10:19:33;;;;;;;33.50;20.58;;;14.40;63.70;;;;;;4938938;29;20028;-72
2021/01/21 10:21:59;;;;;;;35.58;22.67;;;14.20;67.10;;;;;;4938486;29;20095;-72
2021/01/21 10:24:25;;;;;;;35.40;20.25;;;14.40;64.40;;;;;;4937366;29;20122;-73
2021/01/21 10:26:51;;;;;;;34.35;21.23;;;14.60;62.20;;;;;;4938809;29;20066;-72
2021/01/21 10:29:18;;;;;;;30.05;17.95;;;14.60;67.10;;;;;;4938189;29;20031;-73
2021/01/21 10:31:44;;;;;;;45.35;23.63;;;14.80;63.10;;;;;;4921687;29;20036;-71
2021/01/21 10:34:11;;;;;;;51.75;25.05;;;15.50;62.90;;;;;;4938969;29;20038;-74
2021/01/21 10:36:37;;;;;;;32.92;19.45;;;15.50;58.50;;;;;;4937181;29;20481;-73
2021/01/21 10:39:06;;;;;;;28.02;16.70;;;15.10;60.60;;;;;;4938898;29;20032;-73
2021/01/21 10:41:33;;;;;;;34.13;19.00;;;14.80;59.70;;;;;;4920846;29;20031;-73
2021/01/21 10:43:59;;;;;;;31.52;20.17;;;15.00;63.40;;;;;;4919948;29;20486;-71
2021/01/21 10:46:24;;;;;;;27.95;16.50;;;15.30;63.50;;;;;;4944796;29;20031;-72
2021/01/21 10:48:51;;;;;;;33.85;19.80;;;15.70;62.00;;;;;;4947173;29;20111;-71
2021/01/21 10:51:16;;;;;;;28.63;17.85;;;15.80;62.00;;;;;;4946338;29;20024;-73
2021/01/21 10:53:42;;;;;;;23.23;13.45;;;16.00;62.00;;;;;;4945852;29;20037;-72
2021/01/21 10:56:08;;;;;;;23.13;15.63;;;15.80;61.60;;;;;;4919829;29;20062;-72
2021/01/21 10:58:34;;;;;;;22.83;14.68;;;15.90;61.70;;;;;;4942112;29;20031;-72
2021/01/21 11:00:59;;;;;;;21.15;12.88;;;16.00;59.80;;;;;;4944964;29;20472;-72
2021/01/21 11:03:25;;;;;;;19.23;10.82;;;15.90;59.70;;;;;;4947579;29;20027;-72
2021/01/21 11:05:51;;;;;;;22.35;15.43;;;16.00;60.70;;;;;;4919302;29;20027;-72
2021/01/21 11:08:17;;;;;;;21.80;12.02;;;16.30;59.20;;;;;;4927561;29;20043;-72
2021/01/21 11:10:43;;;;;;;16.80;10.43;;;16.50;60.10;;;;;;4946782;29;20039;-72
2021/01/21 11:13:16;;;;;;;15.82;10.13;;;16.40;58.30;;;;;;4945185;29;20035;-71
2021/01/21 11:15:41;;;;;;;20.27;13.55;;;16.00;57.70;;;;;;4944822;29;20035;-72
2021/01/21 11:18:07;;;;;;;28.10;17.15;;;16.50;62.40;;;;;;4944473;29;20025;-72
2021/01/21 11:20:34;;;;;;;20.95;13.23;;;17.20;58.60;;;;;;4942814;29;20028;-73
2021/01/21 11:23:01;;;;;;;16.70;10.48;;;17.10;57.00;;;;;;4946348;29;20056;-73
2021/01/21 11:25:27;;;;;;;16.25;10.98;;;17.30;57.60;;;;;;4941640;29;20041;-73
2021/01/21 11:27:53;;;;;;;22.88;14.35;;;17.50;57.50;;;;;;4936560;29;20472;-73
2021/01/21 11:30:19;;;;;;;19.55;15.05;;;17.20;55.40;;;;;;4944977;29;20031;-74
2021/01/21 11:32:45;;;;;;;21.15;15.55;;;16.90;56.40;;;;;;4935268;29;20034;-74
2021/01/21 11:35:11;;;;;;;22.00;15.43;;;17.00;58.40;;;;;;4945920;29;20023;-73
2021/01/21 11:37:37;;;;;;;24.30;16.02;;;17.20;57.90;;;;;;4943989;29;20020;-72
2021/01/21 11:40:04;;;;;;;29.08;18.17;;;17.10;56.90;;;;;;4942701;29;20580;-72
2021/01/21 11:42:29;;;;;;;20.63;12.10;;;17.00;59.00;;;;;;4942635;29;20113;-73
2021/01/21 11:44:55;;;;;;;20.85;15.45;;;16.80;55.40;;;;;;4944156;29;20155;-72
2021/01/21 11:47:21;;;;;;;25.20;16.38;;;16.70;58.20;;;;;;4919436;29;20468;-71
2021/01/21 11:49:47;;;;;;;26.70;17.02;;;16.90;57.90;;;;;;4936611;29;20028;-73
2021/01/21 11:52:13;;;;;;;20.65;13.48;;;17.00;56.90;;;;;;4926169;29;20103;-73
2021/01/21 11:54:39;;;;;;;23.30;15.18;;;17.10;57.50;;;;;;4945839;29;20054;-73
2021/01/21 11:57:05;;;;;;;21.98;14.70;;;17.20;56.70;;;;;;4918925;29;20031;-73
2021/01/21 11:59:31;;;;;;;25.50;16.50;;;17.00;55.20;;;;;;4937547;29;20429;-73
2021/01/21 12:01:56;;;;;;;21.70;14.02;;;17.10;57.70;;;;;;4935832;29;20345;-73
2021/01/21 12:04:22;;;;;;;27.38;16.17;;;17.60;55.20;;;;;;4919997;29;20472;-73
2021/01/21 12:06:48;;;;;;;35.40;19.58;;;17.60;54.40;;;;;;4936624;29;20020;-74
2021/01/21 12:09:14;;;;;;;26.65;15.25;;;17.50;55.00;;;;;;4936615;29;20042;-74
2021/01/21 12:11:40;;;;;;;35.85;22.60;;;17.50;55.00;;;;;;4936181;29;20032;-73
2021/01/21 12:14:05;;;;;;;35.70;21.42;;;18.20;55.60;;;;;;4935661;29;20457;-74
2021/01/21 12:16:31;;;;;;;27.33;17.85;;;18.00;55.20;;;;;;4936609;29;20075;-73
2021/01/21 12:18:57;;;;;;;28.15;18.70;;;18.20;54.30;;;;;;4919766;29;20074;-74
2021/01/21 12:21:23;;;;;;;22.98;14.70;;;18.40;54.90;;;;;;4938857;29;20484;-74
2021/01/21 12:23:48;;;;;;;23.50;16.08;;;18.60;54.80;;;;;;4945427;29;20127;-73
2021/01/21 12:26:15;;;;;;;21.27;13.88;;;18.50;54.00;;;;;;4948139;29;20028;-75
2021/01/21 12:28:41;;;;;;;22.17;11.18;;;18.60;53.00;;;;;;4949212;29;20078;-73
2021/01/21 12:31:07;;;;;;;27.45;18.92;;;18.40;54.40;;;;;;4946602;29;20043;-73
2021/01/21 12:33:33;;;;;;;20.25;12.45;;;18.60;53.40;;;;;;4949257;29;20038;-74
2021/01/21 12:35:59;;;;;;;19.33;12.77;;;18.90;54.90;;;;;;4934381;29;20417;-74
2021/01/21 12:38:25;;;;;;;22.77;12.20;;;19.00;54.40;;;;;;4945113;29;20050;-74
2021/01/21 12:40:52;;;;;;;32.40;18.63;;;18.90;54.70;;;;;;4918199;29;20111;-73